.
WxDataArchive / Data Records for 2009-11-12
2009-11-11 November 2009 2009-11-13

Data Records for Thursday, 12 November 2009

Time	Temp	Chill	HIndex	Humid	Dewpt	 Wind 	HiWind	WindDir	Rain 	Barom 
-----	----	-----	------	-----	-----	------	------	-------	-----	----- 
00:00	31.9	31.9	31.9	78	25.8	0	0	---	0.00	30.340 
00:05	31.8	31.8	31.8	79	26.0	0	0	---	0.00	30.340 
00:10	31.8	31.8	31.8	79	26.0	0	0	---	0.00	30.340 
00:15	31.8	31.8	31.8	80	26.3	0	0	---	0.00	30.334 
00:20	31.9	31.9	31.9	81	26.7	0	2	112	0.00	30.334 
00:25	32.4	32.4	32.4	81	27.2	0	0	---	0.00	30.334 
00:30	32.8	32.8	32.8	81	27.6	0	0	---	0.00	30.336 
00:35	33.4	33.4	33.4	80	27.9	0	0	---	0.00	30.336 
00:40	33.8	33.8	33.8	79	28.0	0	0	---	0.00	30.336 
00:45	34.0	34.0	34.0	78	27.9	0	0	---	0.00	30.335 
00:50	34.1	34.1	34.1	78	28.0	0	0	---	0.00	30.335 
00:55	34.1	34.1	34.1	78	28.0	0	1	112	0.00	30.335 
01:00	34.3	34.3	34.3	78	28.2	0	1	112	0.00	30.334 
01:05	34.4	34.4	34.4	78	28.3	0	1	112	0.00	30.334 
01:10	34.6	34.6	34.6	79	28.8	0	2	112	0.00	30.334 
01:15	35.0	35.0	35.0	79	29.2	1	3	112	0.00	30.318 
01:20	35.6	35.6	35.6	79	29.7	0	2	112	0.00	30.318 
01:25	35.9	35.9	35.9	78	29.7	0	1	112	0.00	30.318 
01:30	36.0	36.0	36.0	78	29.8	0	1	112	0.00	30.321 
01:35	35.9	35.9	35.9	77	29.4	0	1	112	0.00	30.321 
01:40	35.9	35.9	35.9	77	29.4	0	1	112	0.00	30.321 
01:45	35.8	35.8	35.8	77	29.3	0	1	112	0.00	30.318 
01:50	35.5	35.5	35.5	77	29.0	0	0	---	0.00	30.318 
01:55	35.2	35.2	35.2	77	28.7	0	1	112	0.00	30.318 
02:00	34.9	34.9	34.9	77	28.4	0	0	---	0.00	30.319 
02:05	34.6	34.6	34.6	77	28.1	0	0	---	0.00	30.319 
02:10	34.4	34.4	34.4	78	28.3	0	0	---	0.00	30.319 
02:15	34.3	34.3	34.3	79	28.5	0	1	112	0.00	30.316 
02:20	34.3	34.3	34.3	80	28.8	0	1	112	0.00	30.316 
02:25	34.3	34.3	34.3	80	28.8	0	1	112	0.00	30.316 
02:30	34.1	34.1	34.1	80	28.6	0	0	---	0.00	30.311 
02:35	34.0	34.0	34.0	81	28.8	0	1	112	0.00	30.311 
02:40	33.8	33.8	33.8	81	28.6	0	1	112	0.00	30.311 
02:45	33.8	33.8	33.8	82	28.9	0	1	112	0.00	30.308 
02:50	33.8	33.8	33.8	82	28.9	0	2	112	0.00	30.308 
02:55	33.8	33.8	33.8	83	29.2	0	3	112	0.00	30.308 
03:00	33.8	33.8	33.8	83	29.2	0	1	112	0.00	30.304 
03:05	33.7	33.7	33.7	83	29.1	0	0	---	0.00	30.304 
03:10	33.5	33.5	33.5	83	28.9	0	0	---	0.00	30.304 
03:15	33.2	33.2	33.2	84	28.9	0	0	---	0.00	30.306 
03:20	33.1	33.1	33.1	84	28.8	0	0	---	0.00	30.306 
03:25	32.9	32.9	32.9	85	28.9	0	0	---	0.00	30.306 
03:30	32.9	32.9	32.9	85	28.9	0	0	---	0.00	30.305 
03:35	32.9	32.9	32.9	86	29.2	0	1	112	0.00	30.305 
03:40	32.9	32.9	32.9	87	29.5	0	1	112	0.00	30.305 
03:45	33.1	33.1	33.1	87	29.7	0	0	---	0.00	30.304 
03:50	33.1	33.1	33.1	87	29.7	0	0	---	0.00	30.304 
03:55	33.1	33.1	33.1	87	29.7	0	0	---	0.00	30.304 
04:00	32.9	32.9	32.9	87	29.5	0	0	---	0.00	30.303 
04:05	32.8	32.8	32.8	87	29.4	0	0	---	0.00	30.303 
04:10	32.7	32.7	32.7	88	29.5	0	0	---	0.00	30.303 
04:15	32.4	32.4	32.4	88	29.3	0	0	---	0.00	30.308 
04:20	32.1	32.1	32.1	88	29.0	0	0	---	0.00	30.308 
04:25	31.8	31.8	31.8	88	28.7	0	0	---	0.00	30.308 
04:30	31.6	31.6	31.6	88	28.5	0	0	---	0.00	30.304 
04:35	31.5	31.5	31.5	89	28.6	0	0	---	0.00	30.304 
04:40	31.3	31.3	31.3	89	28.4	0	0	---	0.00	30.304 
04:45	31.2	31.2	31.2	89	28.3	0	0	---	0.00	30.296 
04:50	31.2	31.2	31.2	89	28.3	0	0	---	0.00	30.296 
04:55	31.0	31.0	31.0	90	28.4	0	0	---	0.00	30.296 
05:00	31.0	31.0	31.0	90	28.4	0	0	---	0.00	30.294 
05:05	30.9	30.9	30.9	90	28.3	0	0	---	0.00	30.294 
05:10	30.7	30.7	30.7	90	28.1	0	0	---	0.00	30.294 
05:15	30.6	30.6	30.6	90	28.0	0	0	---	0.00	30.299 
05:20	30.6	30.6	30.6	90	28.0	0	0	---	0.00	30.299 
05:25	30.4	30.4	30.4	91	28.1	0	0	---	0.00	30.299 
05:30	30.3	30.3	30.3	91	28.0	0	0	---	0.00	30.298 
05:35	30.1	30.1	30.1	91	27.8	0	0	---	0.00	30.298 
05:40	30.0	30.0	30.0	91	27.7	0	0	---	0.00	30.298 
05:45	30.0	30.0	30.0	91	27.7	0	0	---	0.00	30.297 
05:50	29.8	29.8	29.8	91	27.5	0	0	---	0.00	30.297 
05:55	29.8	29.8	29.8	92	27.8	0	0	---	0.00	30.297 
06:00	29.8	29.8	29.8	92	27.8	0	0	---	0.00	30.294 
06:05	29.8	29.8	29.8	92	27.8	0	0	---	0.00	30.294 
06:10	29.8	29.8	29.8	92	27.8	0	0	---	0.00	30.294 
06:15	30.0	30.0	30.0	92	28.0	0	0	---	0.00	30.297 
06:20	30.0	30.0	30.0	92	28.0	0	0	---	0.00	30.297 
06:25	30.0	30.0	30.0	92	28.0	0	0	---	0.00	30.297 
06:30	29.8	29.8	29.8	92	27.8	0	0	---	0.00	30.293 
06:35	29.7	29.7	29.7	92	27.7	0	0	---	0.00	30.293 
06:40	29.5	29.5	29.5	92	27.5	0	0	---	0.00	30.293 
06:45	29.5	29.5	29.5	92	27.5	0	0	---	0.00	30.286 
06:50	30.0	30.0	30.0	93	28.2	0	1	112	0.00	30.286 
06:55	30.4	30.4	30.4	93	28.6	0	0	---	0.00	30.286 
07:00	30.7	30.7	30.7	93	28.9	0	0	---	0.00	30.292 
07:05	30.7	30.7	30.7	93	28.9	0	0	---	0.00	30.292 
07:10	30.9	30.9	30.9	93	29.1	0	0	---	0.00	30.292 
07:15	31.0	31.0	31.0	94	29.5	0	0	---	0.00	30.295 
07:20	31.3	31.3	31.3	94	29.8	0	1	112	0.00	30.295 
07:25	31.9	31.9	31.9	94	30.4	0	1	112	0.00	30.295 
07:30	32.5	32.5	32.5	94	31.0	0	2	112	0.00	30.293 
07:35	32.8	32.8	32.8	94	31.3	0	2	112	0.00	30.293 
07:40	32.9	32.9	32.9	94	31.4	0	1	112	0.00	30.293 
07:45	33.1	33.1	33.1	94	31.6	1	2	112	0.00	30.296 
07:50	33.4	33.4	33.4	95	32.1	1	4	112	0.00	30.296 
07:55	33.7	33.7	33.7	95	32.4	2	5	90	0.00	30.296 
08:00	33.7	33.7	33.7	95	32.4	2	4	112	0.00	30.282 
08:05	33.7	33.7	33.7	95	32.4	2	7	112	0.00	30.282 
08:10	33.5	33.5	33.5	95	32.2	2	6	112	0.00	30.282 
08:15	33.5	33.5	33.5	95	32.2	2	5	90	0.00	30.300 
08:20	33.5	33.5	33.5	95	32.2	1	4	135	0.00	30.300 
08:25	33.5	33.5	33.5	95	32.2	1	3	135	0.00	30.300 
08:30	33.5	33.5	33.5	95	32.2	0	2	135	0.00	30.302 
08:35	33.5	33.5	33.5	95	32.2	1	4	90	0.00	30.302 
08:40	33.5	33.5	33.5	95	32.2	2	5	112	0.00	30.302 
08:45	33.5	33.5	33.5	95	32.2	1	4	112	0.00	30.301 
08:50	33.7	33.7	33.7	95	32.4	1	2	112	0.00	30.301 
08:55	33.7	33.7	33.7	95	32.4	0	2	112	0.00	30.301 
09:00	33.8	33.8	33.8	96	32.8	0	2	112	0.00	30.307 
09:05	34.0	34.0	34.0	96	33.0	0	2	112	0.00	30.307 
09:10	34.1	34.1	34.1	96	33.1	1	3	112	0.00	30.307 
09:15	34.3	34.3	34.3	96	33.3	1	3	112	0.00	30.309 
09:20	34.3	34.3	34.3	96	33.3	0	2	112	0.00	30.309 
09:25	34.4	34.4	34.4	96	33.4	1	3	112	0.00	30.309 
09:30	34.9	34.9	34.9	96	33.9	0	2	112	0.00	30.302 
09:35	35.3	35.3	35.3	96	34.3	0	1	112	0.00	30.302 
09:40	35.8	35.8	35.8	96	34.8	0	2	112	0.00	30.302 
09:45	35.5	35.5	35.5	96	34.5	1	4	90	0.00	30.299 
09:50	35.2	35.2	35.2	96	34.2	1	5	90	0.00	30.299 
09:55	35.0	35.0	35.0	96	34.0	0	2	90	0.00	30.299 
10:00	35.5	35.5	35.5	96	34.5	0	1	90	0.00	30.300 
10:05	35.9	35.9	35.9	96	34.9	0	1	90	0.00	30.300 
10:10	36.2	36.2	36.2	96	35.2	0	2	90	0.00	30.300 
10:15	36.5	36.5	36.5	96	35.5	1	3	90	0.00	30.295 
10:20	36.5	36.5	36.5	96	35.5	1	4	90	0.00	30.295 
10:25	36.6	36.6	36.6	96	35.6	2	4	112	0.00	30.295 
10:30	37.2	37.2	37.2	96	36.2	1	3	112	0.00	30.285 
10:35	37.8	37.8	37.8	96	36.8	0	2	112	0.00	30.285 
10:40	37.8	37.8	37.8	96	36.8	1	4	90	0.00	30.285 
10:45	37.8	37.8	37.8	96	36.8	2	7	90	0.00	30.285 
10:50	37.9	37.9	37.9	96	36.9	3	6	112	0.00	30.285 
10:55	38.5	38.5	38.5	96	37.5	1	4	112	0.00	30.285 
11:00	39.3	39.3	39.3	96	38.3	1	6	112	0.00	30.284 
11:05	38.9	38.9	38.9	95	37.6	3	6	90	0.00	30.284 
11:10	38.9	38.9	38.9	94	37.3	2	5	112	0.00	30.284 
11:15	39.3	39.3	39.3	93	37.4	2	4	90	0.00	30.285 
11:20	39.6	39.6	39.6	92	37.5	2	6	90	0.00	30.285 
11:25	40.2	40.2	40.2	91	37.8	1	3	112	0.00	30.285 
11:30	40.8	40.8	40.8	90	38.1	1	4	112	0.00	30.282 
11:35	41.2	41.2	41.2	88	37.9	1	5	112	0.00	30.282 
11:40	41.5	41.5	41.5	85	37.3	2	6	112	0.00	30.282 
11:45	42.2	42.2	42.2	84	37.7	1	4	90	0.00	30.269 
11:50	42.8	42.8	42.8	83	38.0	1	4	90	0.00	30.269 
11:55	43.1	43.1	43.1	80	37.4	1	4	68	0.00	30.269 
12:00	43.5	43.5	43.5	77	36.8	1	6	90	0.00	30.266 
12:05	43.8	43.8	43.8	76	36.7	1	4	90	0.00	30.266 
12:10	44.1	44.1	44.1	73	36.0	2	5	90	0.00	30.266 
12:15	44.3	44.3	44.3	74	36.5	1	4	90	0.00	30.248 
12:20	44.9	44.9	44.9	72	36.4	2	6	90	0.00	30.248 
12:25	45.2	45.2	45.2	71	36.4	1	5	90	0.00	30.248 
12:30	45.4	43.6	45.4	68	35.5	4	6	112	0.00	30.246 
12:35	45.7	45.7	45.7	67	35.4	2	5	112	0.00	30.246 
12:40	45.8	45.8	45.8	66	35.1	2	5	112	0.00	30.246 
12:45	46.1	46.1	46.1	65	35.0	1	3	112	0.00	30.232 
12:50	46.5	46.5	46.5	66	35.8	1	4	112	0.00	30.232 
12:55	47.0	47.0	47.0	62	34.7	1	4	112	0.00	30.232 
13:00	47.3	47.3	47.3	61	34.5	1	4	112	0.00	30.228 
13:05	47.6	47.6	47.6	62	35.2	0	2	112	0.00	30.228 
13:10	47.7	47.7	47.7	59	34.1	1	3	112	0.00	30.228 
13:15	47.9	47.9	47.9	58	33.8	1	5	112	0.00	30.218 
13:20	48.0	48.0	48.0	57	33.5	2	6	112	0.00	30.218 
13:25	48.0	48.0	48.0	57	33.5	1	4	112	0.00	30.218 
13:30	48.3	48.3	48.3	55	32.9	2	10	90	0.00	30.212 
13:35	48.6	48.6	48.6	54	32.7	1	5	112	0.00	30.212 
13:40	48.9	48.9	48.9	53	32.5	1	3	112	0.00	30.212 
13:45	48.9	48.9	48.9	52	32.1	2	6	112	0.00	30.197 
13:50	49.1	49.1	49.1	51	31.8	2	5	90	0.00	30.197 
13:55	49.2	49.2	49.2	52	32.3	2	5	112	0.00	30.197 
14:00	49.4	49.4	49.4	54	33.5	1	5	90	0.00	30.193 
14:05	49.6	49.6	49.6	52	32.7	0	4	90	0.00	30.193 
14:10	49.8	49.8	49.8	50	31.9	1	4	22	0.00	30.193 
14:15	50.1	50.1	50.1	51	32.7	1	3	112	0.00	30.186 
14:20	50.2	50.2	50.2	51	32.8	0	2	90	0.00	30.186 
14:25	50.4	50.4	50.4	51	33.0	1	5	90	0.00	30.186 
14:30	50.5	50.5	50.5	50	32.6	0	1	68	0.00	30.187 
14:35	50.8	50.8	50.8	50	32.8	1	4	68	0.00	30.187 
14:40	50.7	50.7	50.7	50	32.7	1	4	112	0.00	30.187 
14:45	50.7	50.7	50.7	50	32.7	1	4	112	0.00	30.190 
14:50	50.7	50.7	50.7	48	31.7	0	2	68	0.00	30.190 
14:55	50.7	50.7	50.7	48	31.7	1	3	68	0.00	30.190 
15:00	50.7	50.7	50.7	50	32.7	2	5	112	0.00	30.179 
15:05	50.7	50.7	50.7	49	32.2	2	5	112	0.00	30.179 
15:10	50.8	50.8	50.8	49	32.3	2	4	112	0.00	30.179 
15:15	51.0	51.0	51.0	50	33.0	0	3	112	0.00	30.174 
15:20	51.1	51.1	51.1	49	32.6	0	1	112	0.00	30.174 
15:25	51.3	51.3	51.3	47	31.8	1	4	22	0.00	30.174 
15:30	51.3	51.3	51.3	46	31.2	1	4	90	0.00	30.164 
15:35	51.1	51.1	51.1	48	32.1	0	3	112	0.00	30.164 
15:40	51.1	51.1	51.1	46	31.0	2	6	112	0.00	30.164 
15:45	51.0	51.0	51.0	46	31.0	2	5	90	0.00	30.155 
15:50	51.0	51.0	51.0	46	31.0	1	3	90	0.00	30.155 
15:55	50.8	50.8	50.8	46	30.8	1	7	90	0.00	30.155 
16:00	50.7	50.7	50.7	46	30.7	2	6	112	0.00	30.156 
16:05	50.7	50.7	50.7	47	31.2	1	4	112	0.00	30.156 
16:10	50.5	50.5	50.5	46	30.5	0	3	90	0.00	30.156 
16:15	50.4	50.4	50.4	47	30.9	1	4	90	0.00	30.160 
16:20	50.4	50.4	50.4	46	30.4	2	4	112	0.00	30.160 
16:25	50.4	50.4	50.4	47	30.9	1	5	90	0.00	30.160 
16:30	50.2	50.2	50.2	46	30.2	2	5	112	0.00	30.155 
16:35	50.2	50.2	50.2	46	30.2	3	6	112	0.00	30.155 
16:40	50.1	50.1	50.1	48	31.2	0	3	112	0.00	30.155 
16:45	49.8	49.8	49.8	48	30.9	1	3	45	0.00	30.151 
16:50	49.6	49.6	49.6	49	31.2	1	4	90	0.00	30.151 
16:55	49.5	49.5	49.5	50	31.6	0	2	90	0.00	30.151 
17:00	49.2	49.2	49.2	50	31.4	0	3	90	0.00	30.150 
17:05	48.8	48.8	48.8	52	32.0	0	2	90	0.00	30.150 
17:10	48.5	48.5	48.5	53	32.2	0	2	90	0.00	30.150 
17:15	48.0	48.0	48.0	54	32.2	1	3	90	0.00	30.148 
17:20	47.7	47.7	47.7	54	31.9	0	1	90	0.00	30.148 
17:25	47.3	47.3	47.3	55	32.0	0	0	---	0.00	30.148 
17:30	46.7	46.7	46.7	56	31.8	0	0	---	0.00	30.152 
17:35	46.1	46.1	46.1	58	32.2	0	0	---	0.00	30.152 
17:40	45.5	45.5	45.5	59	32.0	0	0	---	0.00	30.152 
17:45	44.9	44.9	44.9	61	32.3	0	0	---	0.00	30.149 
17:50	44.2	44.2	44.2	62	32.0	0	0	---	0.00	30.149 
17:55	43.6	43.6	43.6	62	31.5	0	0	---	0.00	30.149 
18:00	43.1	43.1	43.1	63	31.4	0	0	---	0.00	30.154 
18:05	42.6	42.6	42.6	64	31.3	0	0	---	0.00	30.154 
18:10	42.2	42.2	42.2	65	31.3	0	0	---	0.00	30.154 
18:15	41.6	41.6	41.6	67	31.5	0	0	---	0.00	30.149 
18:20	41.2	41.2	41.2	68	31.5	0	0	---	0.00	30.149 
18:25	41.1	41.1	41.1	69	31.7	0	0	---	0.00	30.149 
18:30	40.9	40.9	40.9	69	31.5	0	0	---	0.00	30.153 
18:35	40.6	40.6	40.6	70	31.6	0	0	---	0.00	30.153 
18:40	40.5	40.5	40.5	70	31.5	0	0	---	0.00	30.153 
18:45	40.2	40.2	40.2	71	31.6	0	0	---	0.00	30.156 
18:50	39.9	39.9	39.9	72	31.6	0	0	---	0.00	30.156 
18:55	39.8	39.8	39.8	73	31.9	0	0	---	0.00	30.156 
19:00	39.5	39.5	39.5	73	31.6	0	0	---	0.00	30.156 
19:05	39.2	39.2	39.2	75	32.0	0	0	---	0.00	30.156 
19:10	39.1	39.1	39.1	76	32.2	0	0	---	0.00	30.156 
19:15	39.1	39.1	39.1	77	32.5	0	2	90	0.00	30.146 
19:20	39.6	39.6	39.6	76	32.7	0	3	90	0.00	30.146 
19:25	41.1	41.1	41.1	72	32.8	2	4	90	0.00	30.146 
19:30	41.9	41.9	41.9	70	32.8	1	3	90	0.00	30.139 
19:35	42.3	42.3	42.3	69	32.9	1	2	112	0.00	30.139 
19:40	42.3	42.3	42.3	69	32.9	0	2	112	0.00	30.139 
19:45	42.2	42.2	42.2	69	32.8	0	2	112	0.00	30.143 
19:50	42.2	42.2	42.2	69	32.8	1	5	112	0.00	30.143 
19:55	42.1	42.1	42.1	69	32.7	1	4	90	0.00	30.143 
20:00	41.9	41.9	41.9	69	32.5	1	3	90	0.00	30.139 
20:05	41.6	41.6	41.6	70	32.6	0	2	90	0.00	30.139 
20:10	41.3	41.3	41.3	71	32.6	1	3	90	0.00	30.139 
20:15	41.2	41.2	41.2	72	32.9	1	3	90	0.00	30.143 
20:20	40.9	40.9	40.9	72	32.6	1	3	90	0.00	30.143 
20:25	40.8	40.8	40.8	73	32.8	1	3	90	0.00	30.143 
20:30	40.6	40.6	40.6	73	32.6	1	4	112	0.00	30.145 
20:35	40.6	40.6	40.6	74	33.0	1	3	112	0.00	30.145 
20:40	40.5	40.5	40.5	74	32.9	1	3	112	0.00	30.145 
20:45	40.3	40.3	40.3	75	33.0	0	2	112	0.00	30.144 
20:50	40.2	40.2	40.2	76	33.3	1	3	112	0.00	30.144 
20:55	40.2	40.2	40.2	77	33.6	1	2	90	0.00	30.144 
21:00	40.1	40.1	40.1	77	33.5	1	3	90	0.00	30.141 
21:05	40.1	40.1	40.1	78	33.8	1	2	90	0.00	30.141 
21:10	40.1	40.1	40.1	79	34.1	1	5	90	0.00	30.141 
21:15	40.1	40.1	40.1	79	34.1	2	3	90	0.00	30.135 
21:20	40.1	40.1	40.1	80	34.4	2	5	90	0.00	30.135 
21:25	39.9	39.9	39.9	80	34.2	2	4	90	0.00	30.135 
21:30	39.9	39.9	39.9	80	34.2	2	4	90	0.00	30.123 
21:35	39.8	39.8	39.8	81	34.5	1	3	112	0.00	30.123 
21:40	39.5	39.5	39.5	81	34.2	1	2	112	0.00	30.123 
21:45	39.3	39.3	39.3	82	34.3	1	4	112	0.00	30.121 
21:50	39.2	39.2	39.2	82	34.2	1	3	90	0.00	30.121 
21:55	39.2	39.2	39.2	82	34.2	1	4	90	0.00	30.121 
22:00	39.1	39.1	39.1	83	34.4	1	3	90	0.00	30.112 
22:05	38.8	38.8	38.8	84	34.4	1	2	90	0.00	30.112 
22:10	38.8	38.8	38.8	84	34.4	1	3	90	0.00	30.112 
22:15	38.6	38.6	38.6	84	34.2	0	2	90	0.00	30.118 
22:20	38.5	38.5	38.5	85	34.4	0	3	90	0.00	30.118 
22:25	38.3	38.3	38.3	85	34.2	0	2	90	0.00	30.118 
22:30	38.2	38.2	38.2	85	34.1	0	1	90	0.00	30.123 
22:35	38.0	38.0	38.0	85	33.9	0	1	90	0.00	30.123 
22:40	37.8	37.8	37.8	85	33.7	0	0	---	0.00	30.123 
22:45	37.5	37.5	37.5	85	33.4	0	0	---	0.00	30.124 
22:50	37.0	37.0	37.0	86	33.2	0	0	---	0.00	30.124 
22:55	36.9	36.9	36.9	87	33.4	0	2	90	0.00	30.124 
23:00	37.2	37.2	37.2	88	34.0	1	3	90	0.00	30.118 
23:05	37.3	37.3	37.3	88	34.1	1	3	90	0.00	30.118 
23:10	37.6	37.6	37.6	88	34.4	1	3	90	0.00	30.118 
23:15	37.6	37.6	37.6	88	34.4	0	2	90	0.00	30.109 
23:20	37.5	37.5	37.5	88	34.3	0	2	90	0.00	30.109 
23:25	37.3	37.3	37.3	88	34.1	0	2	90	0.00	30.109 
23:30	37.3	37.3	37.3	89	34.4	0	1	90	0.00	30.104 
23:35	37.2	37.2	37.2	89	34.3	0	1	90	0.00	30.104 
23:40	37.0	37.0	37.0	89	34.1	0	2	90	0.00	30.104 
23:45	36.9	36.9	36.9	89	34.0	0	2	90	0.00	30.102 
23:50	36.9	36.9	36.9	89	34.0	1	2	90	0.00	30.102 
23:55	36.8	36.8	36.8	90	34.1	0	2	90	0.00	30.102 

CoCoRaHS
IN-AL-39
A2 Web Hosting
Creative Commons License
GoDaddy
search engine by freefind advanced

loaded 2018-11-16 23:21:09 • last modified 2010-11-18 10:43:29
Privacy PolicyDisclaimer
• wx.awcolley.com is powered by PmWiki v.2002016 •
• all content (unless otherwise noted) © 2018 A W Colley